createdAt,value
2023-05-19T00:06:00.800Z,6.50
2023-05-19T00:12:04.454Z,6.75
2023-05-19T00:18:10.077Z,6.25
2023-05-19T00:24:13.540Z,7.95
2023-05-19T00:30:17.384Z,6.97
2023-05-19T00:36:22.656Z,7.00
2023-05-19T00:42:26.330Z,6.68
2023-05-19T00:48:29.799Z,6.80
2023-05-19T00:54:35.925Z,7.38
2023-05-19T01:00:39.786Z,7.07
2023-05-19T01:06:43.723Z,7.30
2023-05-19T01:12:48.476Z,8.07
2023-05-19T01:18:56.440Z,7.20
2023-05-19T01:25:11.039Z,8.30
2023-05-19T01:31:17.490Z,7.88
2023-05-19T01:37:21.799Z,8.27
2023-05-19T01:43:28.494Z,7.30
2023-05-19T01:49:33.372Z,8.30
2023-05-19T01:55:37.524Z,8.20
2023-05-19T02:01:44.286Z,8.10
2023-05-19T02:07:53.068Z,8.20
2023-05-19T02:13:58.085Z,8.73
2023-05-19T02:20:01.856Z,8.52
2023-05-19T02:26:08.647Z,8.98
2023-05-19T02:32:12.858Z,8.57
2023-05-19T02:38:16.811Z,8.82
2023-05-19T02:44:21.812Z,8.73
2023-05-19T02:50:25.351Z,8.73
2023-05-19T02:56:29.333Z,9.07
2023-05-19T03:02:35.525Z,9.07
2023-05-19T03:08:41.525Z,9.20
2023-05-19T03:14:46.422Z,9.32
2023-05-19T03:20:51.272Z,8.88
2023-05-19T03:26:54.688Z,9.75
2023-05-19T03:32:58.205Z,9.65
2023-05-19T03:39:03.268Z,10.18
2023-05-19T03:45:07.089Z,9.65
2023-05-19T03:51:10.597Z,9.65
2023-05-19T03:57:15.897Z,10.60
2023-05-19T04:03:19.509Z,10.20
2023-05-19T04:09:24.169Z,10.25
2023-05-19T04:15:29.296Z,11.15
2023-05-19T04:21:32.739Z,10.82
2023-05-19T04:27:38.898Z,11.05
2023-05-19T04:33:43.829Z,9.80
2023-05-19T04:39:48.247Z,10.13
2023-05-19T04:45:51.727Z,10.13
2023-05-19T04:51:56.678Z,10.13
2023-05-19T04:58:00.355Z,9.73
2023-05-19T05:04:03.863Z,9.57
2023-05-19T05:10:09.762Z,9.38
2023-05-19T05:16:14.095Z,8.98
2023-05-19T05:22:18.472Z,9.45
2023-05-19T05:28:23.353Z,10.20
2023-05-19T05:34:27.026Z,8.95
2023-05-19T05:40:30.564Z,9.00
2023-05-19T05:46:35.698Z,8.68
2023-05-19T05:52:39.432Z,8.90
2023-05-19T05:58:42.847Z,8.60
2023-05-19T06:04:47.920Z,8.18
2023-05-19T06:10:51.410Z,8.27
2023-05-19T06:16:54.997Z,9.00
2023-05-19T06:22:59.879Z,7.55
2023-05-19T06:29:03.360Z,8.00
2023-05-19T06:35:07.258Z,8.23
2023-05-19T06:41:12.163Z,7.95
2023-05-19T06:47:15.708Z,8.40
2023-05-19T06:53:19.320Z,10.90
2023-05-19T06:59:24.792Z,10.32
2023-05-19T07:05:28.308Z,9.98
2023-05-19T07:11:31.767Z,8.32
2023-05-19T07:17:36.673Z,8.50
2023-05-19T07:23:40.326Z,8.23
2023-05-19T07:29:44.026Z,8.43
2023-05-19T07:35:49.121Z,8.10
2023-05-19T07:41:55.725Z,7.10
2023-05-19T07:47:59.289Z,7.25
2023-05-19T07:54:04.298Z,6.35
2023-05-19T08:00:11.968Z,7.32
2023-05-19T08:06:15.441Z,6.35
2023-05-19T08:12:20.280Z,6.22
2023-05-19T08:18:23.768Z,6.72
2023-05-19T08:24:29.529Z,5.45
2023-05-19T08:30:34.504Z,5.78
2023-05-19T08:36:38.101Z,6.22
2023-05-19T08:42:41.627Z,5.55
2023-05-19T08:48:46.673Z,5.18
2023-05-19T08:54:52.224Z,4.93
2023-05-19T09:00:57.647Z,5.22
2023-05-19T09:07:04.178Z,4.90
2023-05-19T09:13:07.800Z,4.22
2023-05-19T09:19:16.485Z,3.97
2023-05-19T09:25:21.681Z,4.53
2023-05-19T09:31:25.419Z,4.35
2023-05-19T09:37:30.105Z,4.60
2023-05-19T09:43:36.882Z,4.63
2023-05-19T09:49:47.896Z,5.82
2023-05-19T09:55:51.385Z,4.93
2023-05-19T10:01:57.095Z,4.40
2023-05-19T10:08:00.610Z,5.32
2023-05-19T10:14:04.141Z,4.85
2023-05-19T10:20:11.068Z,4.95
2023-05-19T10:26:14.783Z,5.40
2023-05-19T10:32:20.986Z,5.63
2023-05-19T10:38:33.514Z,4.88
2023-05-19T10:44:54.987Z,4.55
2023-05-19T10:50:58.491Z,6.85
2023-05-19T10:57:03.433Z,6.07
2023-05-19T11:03:16.263Z,6.05
2023-05-19T11:09:31.101Z,6.13
2023-05-19T11:15:44.627Z,5.30
2023-05-19T11:21:52.495Z,5.90
2023-05-19T11:27:56.087Z,4.20
2023-05-19T11:34:01.015Z,4.00
2023-05-19T11:40:06.062Z,4.13
2023-05-19T11:46:09.615Z,5.28
2023-05-19T11:52:14.732Z,4.57
2023-05-19T11:58:18.182Z,4.25
2023-05-19T12:04:21.618Z,4.82
2023-05-19T12:10:26.717Z,4.70
2023-05-19T12:16:36.513Z,3.90
2023-05-19T12:22:39.975Z,3.72
2023-05-19T12:28:46.786Z,3.65
2023-05-19T12:34:50.323Z,3.83
2023-05-19T12:40:53.987Z,4.55
2023-05-19T12:47:00.647Z,3.80
2023-05-19T12:53:04.079Z,4.35
2023-05-19T12:59:07.844Z,3.65
2023-05-19T13:05:12.822Z,3.88
2023-05-19T13:11:16.576Z,4.15
2023-05-19T13:17:20.659Z,4.05
2023-05-19T13:23:26.609Z,4.07
2023-05-19T13:29:30.087Z,3.42
2023-05-19T13:35:37.244Z,4.07
2023-05-19T13:41:42.568Z,4.15
2023-05-19T13:47:46.289Z,5.70
2023-05-19T13:53:49.850Z,3.83
2023-05-19T14:00:02.810Z,6.57
2023-05-19T14:06:08.158Z,5.97
2023-05-19T14:12:12.278Z,6.03
2023-05-19T14:18:17.480Z,6.63
2023-05-19T14:24:21.301Z,7.38
2023-05-19T14:30:24.860Z,6.78
2023-05-19T14:36:29.810Z,6.35
2023-05-19T14:42:33.300Z,6.18
2023-05-19T14:48:39.396Z,6.03
2023-05-19T14:54:44.244Z,6.30
2023-05-19T15:00:49.293Z,6.22
2023-05-19T15:07:05.751Z,6.53
2023-05-19T15:13:13.944Z,7.50
2023-05-19T15:19:17.609Z,6.03
2023-05-19T15:25:21.335Z,6.55
2023-05-19T15:31:26.256Z,6.32
2023-05-19T15:37:29.756Z,5.93
2023-05-19T15:43:33.917Z,6.78
2023-05-19T15:49:38.748Z,6.13
2023-05-19T15:55:42.176Z,5.53
2023-05-19T16:01:45.663Z,5.35
2023-05-19T16:07:50.584Z,5.53
2023-05-19T16:13:56.494Z,5.95
2023-05-19T16:20:00.310Z,5.80
2023-05-19T16:26:05.116Z,5.57
2023-05-19T16:32:09.171Z,5.38
2023-05-19T16:38:12.708Z,5.82
2023-05-19T16:44:18.418Z,4.80
2023-05-19T16:50:21.916Z,4.43
2023-05-19T16:56:25.537Z,4.63
2023-05-19T17:02:30.771Z,4.70
2023-05-19T17:08:34.405Z,4.75
2023-05-19T17:14:37.878Z,4.38
2023-05-19T17:20:42.708Z,4.05
2023-05-19T17:26:46.236Z,3.90
2023-05-19T17:32:49.902Z,4.47
2023-05-19T17:38:55.252Z,3.85
2023-05-19T17:44:58.774Z,3.50
2023-05-19T17:51:03.901Z,4.18
2023-05-19T17:57:12.558Z,3.80
2023-05-19T18:03:16.792Z,3.90
2023-05-19T18:09:20.941Z,3.47
2023-05-19T18:15:25.951Z,3.72
2023-05-19T18:21:29.402Z,3.33
2023-05-19T18:27:33.538Z,3.45
2023-05-19T18:33:39.326Z,3.85
2023-05-19T18:39:42.762Z,3.78
2023-05-19T18:45:48.324Z,3.67
2023-05-19T18:51:53.742Z,4.03
2023-05-19T18:57:57.498Z,3.92
2023-05-19T19:04:02.097Z,4.03
2023-05-19T19:10:07.598Z,3.97
2023-05-19T19:16:11.336Z,4.07
2023-05-19T19:22:14.762Z,3.75
2023-05-19T19:28:19.644Z,3.53
2023-05-19T19:34:23.163Z,4.35
2023-05-19T19:40:26.823Z,3.92
2023-05-19T19:46:31.756Z,3.80
2023-05-19T19:52:35.353Z,4.25
2023-05-19T19:58:38.851Z,4.30
2023-05-19T20:04:43.641Z,3.97
2023-05-19T20:10:48.093Z,4.38
2023-05-19T20:16:51.748Z,3.65
2023-05-19T20:22:56.634Z,4.13
2023-05-19T20:29:00.245Z,4.57
2023-05-19T20:35:03.725Z,3.85
2023-05-19T20:41:08.691Z,4.47
2023-05-19T20:47:12.144Z,4.70
2023-05-19T20:53:15.822Z,4.13
2023-05-19T20:59:21.416Z,4.15
2023-05-19T21:05:25.058Z,4.57
2023-05-19T21:11:28.522Z,4.10
2023-05-19T21:17:33.354Z,4.00
2023-05-19T21:23:37.562Z,3.67
2023-05-19T21:29:41.267Z,4.60
2023-05-19T21:35:46.502Z,3.47
2023-05-19T21:41:51.301Z,3.85
2023-05-19T21:47:54.833Z,4.05
2023-05-19T21:53:59.626Z,4.10
2023-05-19T22:00:03.163Z,4.50
2023-05-19T22:06:07.551Z,4.55
2023-05-19T22:12:12.481Z,5.07
2023-05-19T22:18:16.913Z,5.47
2023-05-19T22:24:20.674Z,4.63
2023-05-19T22:30:25.864Z,5.65
2023-05-19T22:36:29.328Z,5.43
2023-05-19T22:42:32.896Z,5.40
2023-05-19T22:48:37.720Z,6.00
2023-05-19T22:54:41.150Z,6.03
2023-05-19T23:00:44.651Z,6.47
2023-05-19T23:06:49.687Z,7.32
2023-05-19T23:12:53.292Z,6.97
2023-05-19T23:18:57.097Z,6.50
2023-05-19T23:25:07.435Z,7.28
2023-05-19T23:31:11.601Z,6.78
2023-05-19T23:37:15.360Z,6.80
2023-05-19T23:43:20.451Z,7.05
2023-05-19T23:49:23.856Z,6.65
2023-05-19T23:55:27.364Z,6.68
